sensor_id;sensor_type;location;lat;lon;timestamp;temperature;humidity
4505;DHT22;2265;48.794;9.520;2024-02-16T00:00:08;10.00;98.00
4505;DHT22;2265;48.794;9.520;2024-02-16T00:02:37;10.00;98.00
4505;DHT22;2265;48.794;9.520;2024-02-16T00:05:05;9.90;98.00
4505;DHT22;2265;48.794;9.520;2024-02-16T00:07:33;9.70;98.00
4505;DHT22;2265;48.794;9.520;2024-02-16T00:10:02;9.60;98.00
4505;DHT22;2265;48.794;9.520;2024-02-16T00:12:31;9.50;98.00
4505;DHT22;2265;48.794;9.520;2024-02-16T00:14:58;9.50;98.00
4505;DHT22;2265;48.794;9.520;2024-02-16T00:17:25;9.50;98.00
4505;DHT22;2265;48.794;9.520;2024-02-16T00:19:53;9.40;98.00
4505;DHT22;2265;48.794;9.520;2024-02-16T00:22:20;9.30;98.00
4505;DHT22;2265;48.794;9.520;2024-02-16T00:24:47;9.40;98.00
4505;DHT22;2265;48.794;9.520;2024-02-16T00:27:16;9.50;98.00
4505;DHT22;2265;48.794;9.520;2024-02-16T00:29:43;9.40;98.00
4505;DHT22;2265;48.794;9.520;2024-02-16T00:32:11;9.40;98.00
4505;DHT22;2265;48.794;9.520;2024-02-16T00:34:39;9.50;98.00
4505;DHT22;2265;48.794;9.520;2024-02-16T00:37:07;9.60;98.00
4505;DHT22;2265;48.794;9.520;2024-02-16T00:39:58;9.70;98.00
4505;DHT22;2265;48.794;9.520;2024-02-16T00:42:26;9.50;98.00
4505;DHT22;2265;48.794;9.520;2024-02-16T00:44:56;9.60;98.00
4505;DHT22;2265;48.794;9.520;2024-02-16T00:47:26;9.70;98.00
4505;DHT22;2265;48.794;9.520;2024-02-16T00:49:53;9.60;98.00
4505;DHT22;2265;48.794;9.520;2024-02-16T00:52:21;9.60;98.00
4505;DHT22;2265;48.794;9.520;2024-02-16T00:54:48;9.50;98.00
4505;DHT22;2265;48.794;9.520;2024-02-16T00:57:15;9.50;98.00
4505;DHT22;2265;48.794;9.520;2024-02-16T00:59:43;9.60;98.00
4505;DHT22;2265;48.794;9.520;2024-02-16T01:02:10;9.50;98.00
4505;DHT22;2265;48.794;9.520;2024-02-16T01:04:38;9.60;98.00
4505;DHT22;2265;48.794;9.520;2024-02-16T01:07:05;9.70;98.00
4505;DHT22;2265;48.794;9.520;2024-02-16T01:09:32;9.70;98.00
4505;DHT22;2265;48.794;9.520;2024-02-16T01:11:59;9.60;98.00
4505;DHT22;2265;48.794;9.520;2024-02-16T01:14:26;9.50;98.00
4505;DHT22;2265;48.794;9.520;2024-02-16T01:16:54;9.40;98.00
4505;DHT22;2265;48.794;9.520;2024-02-16T01:19:21;9.50;98.00
4505;DHT22;2265;48.794;9.520;2024-02-16T01:21:48;9.40;98.00
4505;DHT22;2265;48.794;9.520;2024-02-16T01:24:18;9.60;98.00
4505;DHT22;2265;48.794;9.520;2024-02-16T01:26:45;9.60;98.00
4505;DHT22;2265;48.794;9.520;2024-02-16T01:29:12;9.50;98.00
4505;DHT22;2265;48.794;9.520;2024-02-16T01:31:40;9.60;98.00
4505;DHT22;2265;48.794;9.520;2024-02-16T01:34:08;9.60;98.00
4505;DHT22;2265;48.794;9.520;2024-02-16T01:36:35;9.60;98.00
4505;DHT22;2265;48.794;9.520;2024-02-16T01:39:02;9.50;98.00
4505;DHT22;2265;48.794;9.520;2024-02-16T01:41:30;9.60;98.00
4505;DHT22;2265;48.794;9.520;2024-02-16T01:43:57;9.60;98.00
4505;DHT22;2265;48.794;9.520;2024-02-16T01:46:24;9.60;98.00
4505;DHT22;2265;48.794;9.520;2024-02-16T01:48:52;9.60;98.00
4505;DHT22;2265;48.794;9.520;2024-02-16T01:51:23;9.70;98.00
4505;DHT22;2265;48.794;9.520;2024-02-16T01:53:52;9.80;98.00
4505;DHT22;2265;48.794;9.520;2024-02-16T01:56:20;9.80;98.00
4505;DHT22;2265;48.794;9.520;2024-02-16T01:58:47;9.80;98.00
4505;DHT22;2265;48.794;9.520;2024-02-16T02:01:14;9.80;98.00
4505;DHT22;2265;48.794;9.520;2024-02-16T02:03:41;9.80;98.00
4505;DHT22;2265;48.794;9.520;2024-02-16T02:06:08;9.80;98.00
4505;DHT22;2265;48.794;9.520;2024-02-16T02:08:37;9.90;98.00
4505;DHT22;2265;48.794;9.520;2024-02-16T02:11:05;10.10;98.00
4505;DHT22;2265;48.794;9.520;2024-02-16T02:13:32;10.20;98.00
4505;DHT22;2265;48.794;9.520;2024-02-16T02:15:59;10.20;98.00
4505;DHT22;2265;48.794;9.520;2024-02-16T02:18:27;10.00;98.00
4505;DHT22;2265;48.794;9.520;2024-02-16T02:20:54;9.90;98.00
4505;DHT22;2265;48.794;9.520;2024-02-16T02:23:22;9.70;98.00
4505;DHT22;2265;48.794;9.520;2024-02-16T02:25:49;9.60;98.00
4505;DHT22;2265;48.794;9.520;2024-02-16T02:28:17;9.70;98.00
4505;DHT22;2265;48.794;9.520;2024-02-16T02:30:45;9.60;98.00
4505;DHT22;2265;48.794;9.520;2024-02-16T02:33:12;9.50;98.00
4505;DHT22;2265;48.794;9.520;2024-02-16T02:35:39;9.50;98.00
4505;DHT22;2265;48.794;9.520;2024-02-16T02:38:06;9.60;98.00
4505;DHT22;2265;48.794;9.520;2024-02-16T02:40:34;9.60;98.00
4505;DHT22;2265;48.794;9.520;2024-02-16T02:43:02;9.60;98.00
4505;DHT22;2265;48.794;9.520;2024-02-16T02:45:31;9.70;98.00
4505;DHT22;2265;48.794;9.520;2024-02-16T02:47:58;9.80;98.00
4505;DHT22;2265;48.794;9.520;2024-02-16T02:50:26;9.80;98.00
4505;DHT22;2265;48.794;9.520;2024-02-16T02:52:53;9.70;98.00
4505;DHT22;2265;48.794;9.520;2024-02-16T02:55:20;9.60;98.00
4505;DHT22;2265;48.794;9.520;2024-02-16T02:57:48;9.70;98.00
4505;DHT22;2265;48.794;9.520;2024-02-16T03:00:16;9.70;98.00
4505;DHT22;2265;48.794;9.520;2024-02-16T03:02:43;9.60;98.00
4505;DHT22;2265;48.794;9.520;2024-02-16T03:05:10;9.70;98.00
4505;DHT22;2265;48.794;9.520;2024-02-16T03:07:37;9.80;98.00
4505;DHT22;2265;48.794;9.520;2024-02-16T03:10:06;9.60;98.00
4505;DHT22;2265;48.794;9.520;2024-02-16T03:12:35;9.60;98.00
4505;DHT22;2265;48.794;9.520;2024-02-16T03:15:04;9.80;98.00
4505;DHT22;2265;48.794;9.520;2024-02-16T03:17:31;9.70;98.00
4505;DHT22;2265;48.794;9.520;2024-02-16T03:19:58;9.60;98.00
4505;DHT22;2265;48.794;9.520;2024-02-16T03:22:25;9.40;98.00
4505;DHT22;2265;48.794;9.520;2024-02-16T03:24:52;9.40;98.00
4505;DHT22;2265;48.794;9.520;2024-02-16T03:27:19;9.30;98.00
4505;DHT22;2265;48.794;9.520;2024-02-16T03:29:46;9.40;98.00
4505;DHT22;2265;48.794;9.520;2024-02-16T03:32:15;9.40;98.00
4505;DHT22;2265;48.794;9.520;2024-02-16T03:34:42;9.40;98.00
4505;DHT22;2265;48.794;9.520;2024-02-16T03:37:10;9.50;98.00
4505;DHT22;2265;48.794;9.520;2024-02-16T03:39:37;9.50;98.00
4505;DHT22;2265;48.794;9.520;2024-02-16T03:42:04;9.50;98.00
4505;DHT22;2265;48.794;9.520;2024-02-16T03:44:31;9.60;98.00
4505;DHT22;2265;48.794;9.520;2024-02-16T03:46:59;9.80;98.00
4505;DHT22;2265;48.794;9.520;2024-02-16T03:49:27;10.00;98.00
4505;DHT22;2265;48.794;9.520;2024-02-16T03:51:54;9.90;98.00
4505;DHT22;2265;48.794;9.520;2024-02-16T03:54:21;9.70;98.00
4505;DHT22;2265;48.794;9.520;2024-02-16T03:56:52;9.60;98.00
4505;DHT22;2265;48.794;9.520;2024-02-16T03:59:19;9.50;98.00
4505;DHT22;2265;48.794;9.520;2024-02-16T04:01:46;9.40;98.00
4505;DHT22;2265;48.794;9.520;2024-02-16T04:04:13;9.40;98.00
4505;DHT22;2265;48.794;9.520;2024-02-16T04:06:42;9.30;98.00
4505;DHT22;2265;48.794;9.520;2024-02-16T04:09:09;9.40;98.00
4505;DHT22;2265;48.794;9.520;2024-02-16T04:11:36;9.30;98.00
4505;DHT22;2265;48.794;9.520;2024-02-16T04:14:03;9.20;98.00
4505;DHT22;2265;48.794;9.520;2024-02-16T04:16:30;9.20;98.00
4505;DHT22;2265;48.794;9.520;2024-02-16T04:18:57;9.30;98.00
4505;DHT22;2265;48.794;9.520;2024-02-16T04:21:24;9.20;98.00
4505;DHT22;2265;48.794;9.520;2024-02-16T04:23:53;9.20;98.00
4505;DHT22;2265;48.794;9.520;2024-02-16T04:26:20;9.20;98.00
4505;DHT22;2265;48.794;9.520;2024-02-16T04:28:47;9.20;98.00
4505;DHT22;2265;48.794;9.520;2024-02-16T04:31:14;9.30;98.00
4505;DHT22;2265;48.794;9.520;2024-02-16T04:33:41;9.40;98.00
4505;DHT22;2265;48.794;9.520;2024-02-16T04:36:09;9.30;98.00
4505;DHT22;2265;48.794;9.520;2024-02-16T04:38:36;9.30;98.00
4505;DHT22;2265;48.794;9.520;2024-02-16T04:41:06;9.20;98.00
4505;DHT22;2265;48.794;9.520;2024-02-16T04:43:33;9.30;98.00
4505;DHT22;2265;48.794;9.520;2024-02-16T04:46:00;9.20;98.00
4505;DHT22;2265;48.794;9.520;2024-02-16T04:48:27;9.20;98.00
4505;DHT22;2265;48.794;9.520;2024-02-16T04:50:55;9.40;98.00
4505;DHT22;2265;48.794;9.520;2024-02-16T04:53:22;9.40;98.00
4505;DHT22;2265;48.794;9.520;2024-02-16T04:55:48;9.40;98.00
4505;DHT22;2265;48.794;9.520;2024-02-16T04:58:17;9.50;98.00
4505;DHT22;2265;48.794;9.520;2024-02-16T05:00:44;9.50;98.00
4505;DHT22;2265;48.794;9.520;2024-02-16T05:03:12;9.30;98.00
4505;DHT22;2265;48.794;9.520;2024-02-16T05:05:39;9.20;98.00
4505;DHT22;2265;48.794;9.520;2024-02-16T05:08:07;9.10;98.00
4505;DHT22;2265;48.794;9.520;2024-02-16T05:10:34;9.10;98.00
4505;DHT22;2265;48.794;9.520;2024-02-16T05:13:01;9.20;98.00
4505;DHT22;2265;48.794;9.520;2024-02-16T05:15:29;9.20;98.00
4505;DHT22;2265;48.794;9.520;2024-02-16T05:17:57;9.20;98.00
4505;DHT22;2265;48.794;9.520;2024-02-16T05:20:24;9.20;98.00
4505;DHT22;2265;48.794;9.520;2024-02-16T05:22:51;9.30;98.00
4505;DHT22;2265;48.794;9.520;2024-02-16T05:25:18;9.40;98.00
4505;DHT22;2265;48.794;9.520;2024-02-16T05:27:46;9.40;98.00
4505;DHT22;2265;48.794;9.520;2024-02-16T05:30:13;9.40;98.00
4505;DHT22;2265;48.794;9.520;2024-02-16T05:32:43;9.40;98.00
4505;DHT22;2265;48.794;9.520;2024-02-16T05:35:10;9.30;98.00
4505;DHT22;2265;48.794;9.520;2024-02-16T05:37:38;9.30;98.00
4505;DHT22;2265;48.794;9.520;2024-02-16T05:40:08;9.30;98.00
4505;DHT22;2265;48.794;9.520;2024-02-16T05:42:46;9.30;98.00
4505;DHT22;2265;48.794;9.520;2024-02-16T05:45:13;9.30;98.00
4505;DHT22;2265;48.794;9.520;2024-02-16T05:47:42;9.40;98.00
4505;DHT22;2265;48.794;9.520;2024-02-16T05:50:11;9.40;98.00
4505;DHT22;2265;48.794;9.520;2024-02-16T05:52:38;9.50;98.00
4505;DHT22;2265;48.794;9.520;2024-02-16T05:55:07;9.50;98.00
4505;DHT22;2265;48.794;9.520;2024-02-16T05:57:35;9.40;98.00
4505;DHT22;2265;48.794;9.520;2024-02-16T06:00:02;9.20;98.00
4505;DHT22;2265;48.794;9.520;2024-02-16T06:02:30;9.20;98.00
4505;DHT22;2265;48.794;9.520;2024-02-16T06:04:59;9.20;98.00
4505;DHT22;2265;48.794;9.520;2024-02-16T06:07:26;9.30;98.00
4505;DHT22;2265;48.794;9.520;2024-02-16T06:09:54;9.40;98.00
4505;DHT22;2265;48.794;9.520;2024-02-16T06:12:22;9.40;98.00
4505;DHT22;2265;48.794;9.520;2024-02-16T06:14:49;9.30;98.00
4505;DHT22;2265;48.794;9.520;2024-02-16T06:17:16;9.20;98.00
4505;DHT22;2265;48.794;9.520;2024-02-16T06:19:45;9.20;98.00
4505;DHT22;2265;48.794;9.520;2024-02-16T06:22:13;9.10;98.00
4505;DHT22;2265;48.794;9.520;2024-02-16T06:24:40;9.00;98.00
4505;DHT22;2265;48.794;9.520;2024-02-16T06:27:07;8.90;98.00
4505;DHT22;2265;48.794;9.520;2024-02-16T06:29:34;8.90;98.00
4505;DHT22;2265;48.794;9.520;2024-02-16T06:32:01;8.90;98.00
4505;DHT22;2265;48.794;9.520;2024-02-16T06:34:29;8.80;98.00
4505;DHT22;2265;48.794;9.520;2024-02-16T06:36:56;8.80;98.00
4505;DHT22;2265;48.794;9.520;2024-02-16T06:39:25;8.80;98.00
4505;DHT22;2265;48.794;9.520;2024-02-16T06:41:52;8.90;98.00
4505;DHT22;2265;48.794;9.520;2024-02-16T06:44:19;9.00;98.00
4505;DHT22;2265;48.794;9.520;2024-02-16T06:46:46;8.90;98.00
4505;DHT22;2265;48.794;9.520;2024-02-16T06:49:13;8.90;98.00
4505;DHT22;2265;48.794;9.520;2024-02-16T06:51:40;8.90;98.00
4505;DHT22;2265;48.794;9.520;2024-02-16T06:54:07;8.90;98.00
4505;DHT22;2265;48.794;9.520;2024-02-16T06:56:35;9.00;98.00
4505;DHT22;2265;48.794;9.520;2024-02-16T06:59:02;9.00;98.00
4505;DHT22;2265;48.794;9.520;2024-02-16T07:01:29;9.10;98.00
4505;DHT22;2265;48.794;9.520;2024-02-16T07:03:57;9.20;98.00
4505;DHT22;2265;48.794;9.520;2024-02-16T07:06:24;9.20;98.00
4505;DHT22;2265;48.794;9.520;2024-02-16T07:08:52;9.10;98.00
4505;DHT22;2265;48.794;9.520;2024-02-16T07:11:19;9.20;98.00
4505;DHT22;2265;48.794;9.520;2024-02-16T07:13:48;9.20;98.00
4505;DHT22;2265;48.794;9.520;2024-02-16T07:16:16;9.10;98.00
4505;DHT22;2265;48.794;9.520;2024-02-16T07:18:44;9.20;98.00
4505;DHT22;2265;48.794;9.520;2024-02-16T07:21:11;9.20;98.00
4505;DHT22;2265;48.794;9.520;2024-02-16T07:23:38;9.30;98.00
4505;DHT22;2265;48.794;9.520;2024-02-16T07:26:05;9.30;98.00
4505;DHT22;2265;48.794;9.520;2024-02-16T07:28:33;9.40;98.00
4505;DHT22;2265;48.794;9.520;2024-02-16T07:31:02;9.50;98.00
4505;DHT22;2265;48.794;9.520;2024-02-16T07:33:29;9.50;98.00
4505;DHT22;2265;48.794;9.520;2024-02-16T07:35:56;9.70;98.00
4505;DHT22;2265;48.794;9.520;2024-02-16T07:38:23;9.60;98.00
4505;DHT22;2265;48.794;9.520;2024-02-16T07:40:50;9.60;98.00
4505;DHT22;2265;48.794;9.520;2024-02-16T07:43:17;9.60;98.00
4505;DHT22;2265;48.794;9.520;2024-02-16T07:45:44;9.60;98.00
4505;DHT22;2265;48.794;9.520;2024-02-16T07:48:13;9.60;98.00
4505;DHT22;2265;48.794;9.520;2024-02-16T07:50:40;9.50;98.00
4505;DHT22;2265;48.794;9.520;2024-02-16T07:53:07;9.60;98.00
4505;DHT22;2265;48.794;9.520;2024-02-16T07:55:35;9.60;98.00
4505;DHT22;2265;48.794;9.520;2024-02-16T07:58:02;9.80;98.00
4505;DHT22;2265;48.794;9.520;2024-02-16T08:00:30;9.90;98.00
4505;DHT22;2265;48.794;9.520;2024-02-16T08:02:57;10.00;98.00
4505;DHT22;2265;48.794;9.520;2024-02-16T08:05:26;10.10;98.00
4505;DHT22;2265;48.794;9.520;2024-02-16T08:07:53;10.30;98.00
4505;DHT22;2265;48.794;9.520;2024-02-16T08:10:21;10.30;98.00
4505;DHT22;2265;48.794;9.520;2024-02-16T08:12:50;10.40;98.00
4505;DHT22;2265;48.794;9.520;2024-02-16T08:15:18;10.30;98.00
4505;DHT22;2265;48.794;9.520;2024-02-16T08:17:49;10.30;98.00
4505;DHT22;2265;48.794;9.520;2024-02-16T08:20:16;10.30;98.00
4505;DHT22;2265;48.794;9.520;2024-02-16T08:22:45;10.40;98.00
4505;DHT22;2265;48.794;9.520;2024-02-16T08:25:12;10.40;98.00
4505;DHT22;2265;48.794;9.520;2024-02-16T08:27:39;10.40;98.00
4505;DHT22;2265;48.794;9.520;2024-02-16T08:30:07;10.40;98.00
4505;DHT22;2265;48.794;9.520;2024-02-16T08:32:35;10.50;98.00
4505;DHT22;2265;48.794;9.520;2024-02-16T08:35:03;10.60;98.00
4505;DHT22;2265;48.794;9.520;2024-02-16T08:37:30;10.70;98.00
4505;DHT22;2265;48.794;9.520;2024-02-16T08:39:58;10.90;98.00
4505;DHT22;2265;48.794;9.520;2024-02-16T08:42:25;10.90;98.00
4505;DHT22;2265;48.794;9.520;2024-02-16T08:44:52;11.00;98.00
4505;DHT22;2265;48.794;9.520;2024-02-16T08:47:19;10.90;98.00
4505;DHT22;2265;48.794;9.520;2024-02-16T08:49:47;10.90;98.00
4505;DHT22;2265;48.794;9.520;2024-02-16T08:52:14;10.90;98.00
4505;DHT22;2265;48.794;9.520;2024-02-16T08:54:42;11.00;98.00
4505;DHT22;2265;48.794;9.520;2024-02-16T08:57:11;10.90;98.00
4505;DHT22;2265;48.794;9.520;2024-02-16T08:59:38;10.80;98.00
4505;DHT22;2265;48.794;9.520;2024-02-16T09:02:05;10.90;98.00
4505;DHT22;2265;48.794;9.520;2024-02-16T09:04:32;11.00;98.00
4505;DHT22;2265;48.794;9.520;2024-02-16T09:07:03;11.00;98.00
4505;DHT22;2265;48.794;9.520;2024-02-16T09:09:30;11.10;98.00
4505;DHT22;2265;48.794;9.520;2024-02-16T09:11:57;11.00;98.00
4505;DHT22;2265;48.794;9.520;2024-02-16T09:14:26;11.10;98.00
4505;DHT22;2265;48.794;9.520;2024-02-16T09:16:52;11.20;98.00
4505;DHT22;2265;48.794;9.520;2024-02-16T09:19:19;11.30;98.00
4505;DHT22;2265;48.794;9.520;2024-02-16T09:21:48;11.40;98.00
4505;DHT22;2265;48.794;9.520;2024-02-16T09:24:15;11.60;98.00
4505;DHT22;2265;48.794;9.520;2024-02-16T09:26:44;11.80;98.00
4505;DHT22;2265;48.794;9.520;2024-02-16T09:29:12;11.80;98.00
4505;DHT22;2265;48.794;9.520;2024-02-16T09:31:41;12.10;98.00
4505;DHT22;2265;48.794;9.520;2024-02-16T09:34:08;12.00;98.00
4505;DHT22;2265;48.794;9.520;2024-02-16T09:36:35;12.00;98.00
4505;DHT22;2265;48.794;9.520;2024-02-16T09:39:03;12.00;98.00
4505;DHT22;2265;48.794;9.520;2024-02-16T09:41:33;12.10;98.00
4505;DHT22;2265;48.794;9.520;2024-02-16T09:44:01;12.10;98.00
4505;DHT22;2265;48.794;9.520;2024-02-16T09:46:30;12.20;98.00
4505;DHT22;2265;48.794;9.520;2024-02-16T09:49:01;12.30;98.00
4505;DHT22;2265;48.794;9.520;2024-02-16T09:51:28;12.50;98.00
4505;DHT22;2265;48.794;9.520;2024-02-16T09:53:56;12.70;98.00
4505;DHT22;2265;48.794;9.520;2024-02-16T09:56:25;12.90;98.00
4505;DHT22;2265;48.794;9.520;2024-02-16T09:58:53;13.10;98.00
4505;DHT22;2265;48.794;9.520;2024-02-16T10:01:21;13.30;98.00
4505;DHT22;2265;48.794;9.520;2024-02-16T10:03:49;13.50;98.00
4505;DHT22;2265;48.794;9.520;2024-02-16T10:06:17;13.70;98.00
4505;DHT22;2265;48.794;9.520;2024-02-16T10:08:50;14.00;98.00
4505;DHT22;2265;48.794;9.520;2024-02-16T10:11:37;14.20;98.00
4505;DHT22;2265;48.794;9.520;2024-02-16T10:14:38;14.50;98.00
4505;DHT22;2265;48.794;9.520;2024-02-16T10:21:13;15.20;98.00
4505;DHT22;2265;48.794;9.520;2024-02-16T10:23:42;15.60;98.00
4505;DHT22;2265;48.794;9.520;2024-02-16T10:26:09;15.80;98.00
4505;DHT22;2265;48.794;9.520;2024-02-16T10:28:36;16.00;98.00
4505;DHT22;2265;48.794;9.520;2024-02-16T10:34:28;16.20;98.00
4505;DHT22;2265;48.794;9.520;2024-02-16T10:37:14;16.20;98.00
4505;DHT22;2265;48.794;9.520;2024-02-16T10:39:59;16.40;98.00
4505;DHT22;2265;48.794;9.520;2024-02-16T10:49:22;16.70;98.00
4505;DHT22;2265;48.794;9.520;2024-02-16T10:52:21;17.00;98.00
4505;DHT22;2265;48.794;9.520;2024-02-16T10:58:20;17.10;98.00
4505;DHT22;2265;48.794;9.520;2024-02-16T11:00:51;17.30;98.00
4505;DHT22;2265;48.794;9.520;2024-02-16T11:03:22;17.30;98.00
4505;DHT22;2265;48.794;9.520;2024-02-16T11:05:50;17.40;98.00
4505;DHT22;2265;48.794;9.520;2024-02-16T11:08:18;17.40;98.00
4505;DHT22;2265;48.794;9.520;2024-02-16T11:10:55;17.40;98.00
4505;DHT22;2265;48.794;9.520;2024-02-16T11:13:24;17.40;98.00
4505;DHT22;2265;48.794;9.520;2024-02-16T11:15:58;17.40;98.00
4505;DHT22;2265;48.794;9.520;2024-02-16T11:18:27;17.50;98.00
4505;DHT22;2265;48.794;9.520;2024-02-16T11:20:55;17.40;98.00
4505;DHT22;2265;48.794;9.520;2024-02-16T11:23:28;17.50;98.00
4505;DHT22;2265;48.794;9.520;2024-02-16T11:26:00;17.50;98.00
4505;DHT22;2265;48.794;9.520;2024-02-16T11:28:31;17.50;98.00
4505;DHT22;2265;48.794;9.520;2024-02-16T11:30:58;17.50;98.00
4505;DHT22;2265;48.794;9.520;2024-02-16T11:33:25;17.50;98.00
4505;DHT22;2265;48.794;9.520;2024-02-16T11:35:54;17.40;98.00
4505;DHT22;2265;48.794;9.520;2024-02-16T11:38:22;17.40;98.00
4505;DHT22;2265;48.794;9.520;2024-02-16T11:40:56;17.40;98.00
4505;DHT22;2265;48.794;9.520;2024-02-16T11:43:24;17.40;98.00
4505;DHT22;2265;48.794;9.520;2024-02-16T11:45:53;17.40;98.00
4505;DHT22;2265;48.794;9.520;2024-02-16T11:48:21;17.40;98.00
4505;DHT22;2265;48.794;9.520;2024-02-16T11:50:49;17.50;98.00
4505;DHT22;2265;48.794;9.520;2024-02-16T11:53:17;17.70;98.00
4505;DHT22;2265;48.794;9.520;2024-02-16T11:55:48;17.90;98.00
4505;DHT22;2265;48.794;9.520;2024-02-16T11:58:16;18.10;98.00
4505;DHT22;2265;48.794;9.520;2024-02-16T12:00:44;18.20;98.00
4505;DHT22;2265;48.794;9.520;2024-02-16T12:03:18;18.50;98.00
4505;DHT22;2265;48.794;9.520;2024-02-16T12:05:56;18.70;98.00
4505;DHT22;2265;48.794;9.520;2024-02-16T12:08:31;18.80;98.00
4505;DHT22;2265;48.794;9.520;2024-02-16T12:10:58;18.90;98.00
4505;DHT22;2265;48.794;9.520;2024-02-16T12:13:25;18.90;98.00
4505;DHT22;2265;48.794;9.520;2024-02-16T12:15:52;18.80;98.00
4505;DHT22;2265;48.794;9.520;2024-02-16T12:18:23;18.90;98.00
4505;DHT22;2265;48.794;9.520;2024-02-16T12:21:01;18.90;98.00
4505;DHT22;2265;48.794;9.520;2024-02-16T12:23:29;19.00;98.00
4505;DHT22;2265;48.794;9.520;2024-02-16T12:25:58;19.00;98.00
4505;DHT22;2265;48.794;9.520;2024-02-16T12:28:27;19.10;98.00
4505;DHT22;2265;48.794;9.520;2024-02-16T12:30:56;19.10;98.00
4505;DHT22;2265;48.794;9.520;2024-02-16T12:33:25;19.20;98.00
4505;DHT22;2265;48.794;9.520;2024-02-16T12:35:53;19.20;98.00
4505;DHT22;2265;48.794;9.520;2024-02-16T12:38:20;19.20;98.00
4505;DHT22;2265;48.794;9.520;2024-02-16T12:40:48;19.10;98.00
4505;DHT22;2265;48.794;9.520;2024-02-16T12:43:15;19.00;98.00
4505;DHT22;2265;48.794;9.520;2024-02-16T12:45:42;18.90;98.00
4505;DHT22;2265;48.794;9.520;2024-02-16T12:48:09;19.10;98.00
4505;DHT22;2265;48.794;9.520;2024-02-16T12:50:40;19.10;98.00
4505;DHT22;2265;48.794;9.520;2024-02-16T12:53:08;19.00;98.00
4505;DHT22;2265;48.794;9.520;2024-02-16T12:55:35;19.10;98.00
4505;DHT22;2265;48.794;9.520;2024-02-16T12:58:03;19.30;98.00
4505;DHT22;2265;48.794;9.520;2024-02-16T13:00:30;19.60;98.00
4505;DHT22;2265;48.794;9.520;2024-02-16T13:02:58;19.80;98.00
4505;DHT22;2265;48.794;9.520;2024-02-16T13:05:26;19.80;98.00
4505;DHT22;2265;48.794;9.520;2024-02-16T13:07:54;19.70;98.00
4505;DHT22;2265;48.794;9.520;2024-02-16T13:10:21;19.70;98.00
4505;DHT22;2265;48.794;9.520;2024-02-16T13:12:48;19.70;98.00
4505;DHT22;2265;48.794;9.520;2024-02-16T13:15:16;19.60;98.00
4505;DHT22;2265;48.794;9.520;2024-02-16T13:17:43;19.20;98.00
4505;DHT22;2265;48.794;9.520;2024-02-16T13:20:10;19.20;98.00
4505;DHT22;2265;48.794;9.520;2024-02-16T13:22:37;19.10;98.00
4505;DHT22;2265;48.794;9.520;2024-02-16T13:25:07;19.00;98.00
4505;DHT22;2265;48.794;9.520;2024-02-16T13:27:34;18.80;98.00
4505;DHT22;2265;48.794;9.520;2024-02-16T13:30:01;18.60;98.00
4505;DHT22;2265;48.794;9.520;2024-02-16T13:32:29;18.60;98.00
4505;DHT22;2265;48.794;9.520;2024-02-16T13:34:56;18.60;98.00
4505;DHT22;2265;48.794;9.520;2024-02-16T13:37:23;18.50;98.00
4505;DHT22;2265;48.794;9.520;2024-02-16T13:39:50;18.50;98.00
4505;DHT22;2265;48.794;9.520;2024-02-16T13:42:19;18.50;98.00
4505;DHT22;2265;48.794;9.520;2024-02-16T13:44:46;18.50;98.00
4505;DHT22;2265;48.794;9.520;2024-02-16T13:47:13;18.20;98.00
4505;DHT22;2265;48.794;9.520;2024-02-16T13:49:40;18.20;98.00
4505;DHT22;2265;48.794;9.520;2024-02-16T13:52:07;18.10;98.00
4505;DHT22;2265;48.794;9.520;2024-02-16T13:54:34;18.10;98.00
4505;DHT22;2265;48.794;9.520;2024-02-16T13:57:03;18.10;98.00
4505;DHT22;2265;48.794;9.520;2024-02-16T13:59:31;18.20;98.00
4505;DHT22;2265;48.794;9.520;2024-02-16T14:01:59;18.20;98.00
4505;DHT22;2265;48.794;9.520;2024-02-16T14:04:26;18.10;98.00
4505;DHT22;2265;48.794;9.520;2024-02-16T14:06:54;18.10;98.00
4505;DHT22;2265;48.794;9.520;2024-02-16T14:09:21;18.00;98.00
4505;DHT22;2265;48.794;9.520;2024-02-16T14:11:49;17.90;98.00
4505;DHT22;2265;48.794;9.520;2024-02-16T14:14:17;17.90;98.00
4505;DHT22;2265;48.794;9.520;2024-02-16T14:16:45;17.90;98.00
4505;DHT22;2265;48.794;9.520;2024-02-16T14:19:12;17.90;98.00
4505;DHT22;2265;48.794;9.520;2024-02-16T14:21:39;17.90;98.00
4505;DHT22;2265;48.794;9.520;2024-02-16T14:24:06;17.90;98.00
4505;DHT22;2265;48.794;9.520;2024-02-16T14:26:36;17.90;98.00
4505;DHT22;2265;48.794;9.520;2024-02-16T14:29:04;17.70;98.00
4505;DHT22;2265;48.794;9.520;2024-02-16T14:31:31;17.70;98.00
4505;DHT22;2265;48.794;9.520;2024-02-16T14:34:00;17.70;98.00
4505;DHT22;2265;48.794;9.520;2024-02-16T14:36:32;17.70;98.00
4505;DHT22;2265;48.794;9.520;2024-02-16T14:39:02;17.70;98.00
4505;DHT22;2265;48.794;9.520;2024-02-16T14:41:29;17.60;98.00
4505;DHT22;2265;48.794;9.520;2024-02-16T14:43:56;17.80;98.00
4505;DHT22;2265;48.794;9.520;2024-02-16T14:46:25;17.70;98.00
4505;DHT22;2265;48.794;9.520;2024-02-16T14:48:53;17.50;98.00
4505;DHT22;2265;48.794;9.520;2024-02-16T14:51:21;17.50;98.00
4505;DHT22;2265;48.794;9.520;2024-02-16T14:53:48;17.50;98.00
4505;DHT22;2265;48.794;9.520;2024-02-16T14:56:16;17.50;98.00
4505;DHT22;2265;48.794;9.520;2024-02-16T14:58:47;17.30;98.00
4505;DHT22;2265;48.794;9.520;2024-02-16T15:01:14;17.30;98.00
4505;DHT22;2265;48.794;9.520;2024-02-16T15:03:42;17.20;98.00
4505;DHT22;2265;48.794;9.520;2024-02-16T15:06:09;17.30;98.00
4505;DHT22;2265;48.794;9.520;2024-02-16T15:08:37;17.20;98.00
4505;DHT22;2265;48.794;9.520;2024-02-16T15:11:04;17.10;98.00
4505;DHT22;2265;48.794;9.520;2024-02-16T15:13:32;17.10;98.00
4505;DHT22;2265;48.794;9.520;2024-02-16T15:16:01;17.10;98.00
4505;DHT22;2265;48.794;9.520;2024-02-16T15:18:28;17.00;98.00
4505;DHT22;2265;48.794;9.520;2024-02-16T15:20:55;17.00;98.00
4505;DHT22;2265;48.794;9.520;2024-02-16T15:23:22;16.90;98.00
4505;DHT22;2265;48.794;9.520;2024-02-16T15:25:50;16.90;98.00
4505;DHT22;2265;48.794;9.520;2024-02-16T15:28:17;16.90;98.00
4505;DHT22;2265;48.794;9.520;2024-02-16T15:30:45;16.90;98.00
4505;DHT22;2265;48.794;9.520;2024-02-16T15:33:12;16.80;98.00
4505;DHT22;2265;48.794;9.520;2024-02-16T15:35:39;16.80;98.00
4505;DHT22;2265;48.794;9.520;2024-02-16T15:38:06;16.70;98.00
4505;DHT22;2265;48.794;9.520;2024-02-16T15:40:33;16.70;98.00
4505;DHT22;2265;48.794;9.520;2024-02-16T15:43:04;16.70;98.00
4505;DHT22;2265;48.794;9.520;2024-02-16T15:45:32;16.60;98.00
4505;DHT22;2265;48.794;9.520;2024-02-16T15:48:00;16.60;98.00
4505;DHT22;2265;48.794;9.520;2024-02-16T15:50:27;16.60;98.00
4505;DHT22;2265;48.794;9.520;2024-02-16T15:52:57;16.60;98.00
4505;DHT22;2265;48.794;9.520;2024-02-16T15:55:25;16.50;98.00
4505;DHT22;2265;48.794;9.520;2024-02-16T15:57:52;16.60;98.00
4505;DHT22;2265;48.794;9.520;2024-02-16T16:00:21;16.60;98.00
4505;DHT22;2265;48.794;9.520;2024-02-16T16:02:48;16.60;98.00
4505;DHT22;2265;48.794;9.520;2024-02-16T16:05:16;16.50;98.00
4505;DHT22;2265;48.794;9.520;2024-02-16T16:07:43;16.50;98.00
4505;DHT22;2265;48.794;9.520;2024-02-16T16:10:10;16.60;98.00
4505;DHT22;2265;48.794;9.520;2024-02-16T16:12:38;16.60;98.00
4505;DHT22;2265;48.794;9.520;2024-02-16T16:15:06;16.50;98.00
4505;DHT22;2265;48.794;9.520;2024-02-16T16:17:35;16.60;98.00
4505;DHT22;2265;48.794;9.520;2024-02-16T16:20:02;16.50;98.00
4505;DHT22;2265;48.794;9.520;2024-02-16T16:22:31;16.40;98.00
4505;DHT22;2265;48.794;9.520;2024-02-16T16:25:01;16.30;98.00
4505;DHT22;2265;48.794;9.520;2024-02-16T16:27:29;16.20;98.00
4505;DHT22;2265;48.794;9.520;2024-02-16T16:29:56;16.20;98.00
4505;DHT22;2265;48.794;9.520;2024-02-16T16:32:23;16.10;98.00